sensor_id;sensor_type;location;lat;lon;timestamp;pressure;altitude;pressure_sealevel;temperature;humidity
72975;BME280;74127;54.228;37.632;2023-11-19T00:03:25;1001.813;;;-11.22;81.82617
72975;BME280;74127;54.228;37.632;2023-11-19T00:07:24;1001.861;;;-11.32;81.74414
72975;BME280;74127;54.228;37.632;2023-11-19T00:11:24;1001.828;;;-11.35;81.7373
72975;BME280;74127;54.228;37.632;2023-11-19T00:17:59;1001.778;;;-11.47;81.67188
72975;BME280;74127;54.228;37.632;2023-11-19T00:21:58;1001.821;;;-11.55;81.81152
72975;BME280;74127;54.228;37.632;2023-11-19T00:25:58;1001.857;;;-11.61;81.7168
72975;BME280;74127;54.228;37.632;2023-11-19T00:29:58;1001.857;;;-11.61;81.7168
72975;BME280;74127;54.228;37.632;2023-11-19T00:33:38;1001.838;;;-11.69;81.59961
72975;BME280;74127;54.228;37.632;2023-11-19T00:37:38;1001.907;;;-11.7;81.64844
72975;BME280;74127;54.228;37.632;2023-11-19T00:41:38;1002.034;;;-11.67;81.54004
72975;BME280;74127;54.228;37.632;2023-11-19T00:48:42;1001.842;;;-11.58;81.22168
72975;BME280;74127;54.228;37.632;2023-11-19T00:52:42;1001.895;;;-11.59;81.11621
72975;BME280;74127;54.228;37.632;2023-11-19T00:56:42;1001.873;;;-11.65;81.07227
72975;BME280;74127;54.228;37.632;2023-11-19T01:02:41;1001.792;;;-11.63;80.92383
72975;BME280;74127;54.228;37.632;2023-11-19T01:06:41;1001.774;;;-11.65;81.01465
72975;BME280;74127;54.228;37.632;2023-11-19T01:10:41;1001.779;;;-11.7;80.94043
72975;BME280;74127;54.228;37.632;2023-11-19T01:14:41;1001.812;;;-11.68;81.31445
72975;BME280;74127;54.228;37.632;2023-11-19T01:18:39;1001.681;;;-11.65;81.47363
72975;BME280;74127;54.228;37.632;2023-11-19T01:22:39;1001.63;;;-11.6;81.29883
72975;BME280;74127;54.228;37.632;2023-11-19T01:26:39;1001.541;;;-11.65;80.96973
72975;BME280;74127;54.228;37.632;2023-11-19T01:33:38;1001.374;;;-11.69;80.85156
72975;BME280;74127;54.228;37.632;2023-11-19T01:37:37;1001.374;;;-11.79;80.66992
72975;BME280;74127;54.228;37.632;2023-11-19T01:41:37;1001.524;;;-11.77;80.72266
72975;BME280;74127;54.228;37.632;2023-11-19T01:45:37;1001.68;;;-11.73;80.51465
72975;BME280;74127;54.228;37.632;2023-11-19T01:49:48;1001.557;;;-11.69;80.26758
72975;BME280;74127;54.228;37.632;2023-11-19T01:53:48;1001.566;;;-11.6;80.03027
72975;BME280;74127;54.228;37.632;2023-11-19T01:57:48;1001.566;;;-11.6;80.03027
72975;BME280;74127;54.228;37.632;2023-11-19T02:05:15;1001.498;;;-11.67;80.11621
72975;BME280;74127;54.228;37.632;2023-11-19T02:09:15;1001.565;;;-11.71;80.22363
72975;BME280;74127;54.228;37.632;2023-11-19T02:13:15;1001.504;;;-11.67;80.05469
72975;BME280;74127;54.228;37.632;2023-11-19T02:19:29;1001.397;;;-11.79;79.91016
72975;BME280;74127;54.228;37.632;2023-11-19T02:23:28;1001.397;;;-11.79;79.91016
72975;BME280;74127;54.228;37.632;2023-11-19T02:31:28;1001.442;;;-11.98;79.95605
72975;BME280;74127;54.228;37.632;2023-11-19T02:34:04;1001.449;;;-12.01;79.97949
72975;BME280;74127;54.228;37.632;2023-11-19T02:38:04;1001.487;;;-12;79.86914
72975;BME280;74127;54.228;37.632;2023-11-19T02:42:04;1001.528;;;-11.94;79.72754
72975;BME280;74127;54.228;37.632;2023-11-19T02:46:04;1001.528;;;-11.94;79.72754
72975;BME280;74127;54.228;37.632;2023-11-19T02:49:34;1001.531;;;-11.7;79.26074
72975;BME280;74127;54.228;37.632;2023-11-19T02:53:33;1001.68;;;-11.44;79.16699
72975;BME280;74127;54.228;37.632;2023-11-19T02:57:33;1001.753;;;-10.97;78.73242
72975;BME280;74127;54.228;37.632;2023-11-19T03:01:34;1001.716;;;-10.49;78.31055
72975;BME280;74127;54.228;37.632;2023-11-19T03:04:56;1001.662;;;-10.36;78.13965
72975;BME280;74127;54.228;37.632;2023-11-19T03:08:56;1001.657;;;-9.93;77.8291
72975;BME280;74127;54.228;37.632;2023-11-19T03:12:56;1001.552;;;-9.65;77.4375
72975;BME280;74127;54.228;37.632;2023-11-19T03:16:56;1001.575;;;-9.55;77.44824
72975;BME280;74127;54.228;37.632;2023-11-19T03:20:37;1001.54;;;-9.43;77.27148
72975;BME280;74127;54.228;37.632;2023-11-19T03:24:37;1001.54;;;-9.43;77.27148
72975;BME280;74127;54.228;37.632;2023-11-19T03:28:37;1001.538;;;-9.3;77.16309
72975;BME280;74127;54.228;37.632;2023-11-19T03:35:54;1001.471;;;-9.01;77.17578
72975;BME280;74127;54.228;37.632;2023-11-19T03:39:54;1001.489;;;-8.81;77.09961
72975;BME280;74127;54.228;37.632;2023-11-19T03:43:53;1001.493;;;-8.64;76.81055
72975;BME280;74127;54.228;37.632;2023-11-19T03:51:15;1001.353;;;-8.51;76.59668
72975;BME280;74127;54.228;37.632;2023-11-19T03:55:14;1001.258;;;-8.45;76.45215
72975;BME280;74127;54.228;37.632;2023-11-19T03:59:14;1001.258;;;-8.45;76.45215
72975;BME280;74127;54.228;37.632;2023-11-19T04:05:32;1001.187;;;-8.37;76.49902
72975;BME280;74127;54.228;37.632;2023-11-19T04:09:32;1001.216;;;-8.32;76.54883
72975;BME280;74127;54.228;37.632;2023-11-19T04:13:32;1001.223;;;-8.24;76.5625
72975;BME280;74127;54.228;37.632;2023-11-19T04:17:32;1001.145;;;-8.2;76.66406
72975;BME280;74127;54.228;37.632;2023-11-19T04:20:25;1001.064;;;-8.2;76.6123
72975;BME280;74127;54.228;37.632;2023-11-19T04:24:24;1000.992;;;-8.13;76.58301
72975;BME280;74127;54.228;37.632;2023-11-19T04:28:24;1000.918;;;-8.12;76.59473
72975;BME280;74127;54.228;37.632;2023-11-19T04:32:24;1000.961;;;-8.09;76.65332
72975;BME280;74127;54.228;37.632;2023-11-19T04:35:09;1000.898;;;-8.08;76.68652
72975;BME280;74127;54.228;37.632;2023-11-19T04:39:09;1000.902;;;-7.96;76.7168
72975;BME280;74127;54.228;37.632;2023-11-19T04:43:09;1000.992;;;-7.9;76.73926
72975;BME280;74127;54.228;37.632;2023-11-19T04:47:09;1000.992;;;-7.9;76.73926
72975;BME280;74127;54.228;37.632;2023-11-19T04:51:55;1000.93;;;-7.78;76.60645
72975;BME280;74127;54.228;37.632;2023-11-19T04:55:55;1000.911;;;-7.7;76.4873
72975;BME280;74127;54.228;37.632;2023-11-19T04:59:55;1000.911;;;-7.7;76.4873
72975;BME280;74127;54.228;37.632;2023-11-19T05:05:34;1000.864;;;-7.59;76.3623
72975;BME280;74127;54.228;37.632;2023-11-19T05:09:34;1000.993;;;-7.46;76.35547
72975;BME280;74127;54.228;37.632;2023-11-19T05:13:34;1000.892;;;-7.35;76.30078
72975;BME280;74127;54.228;37.632;2023-11-19T05:17:34;1000.953;;;-7.3;76.14551
72975;BME280;74127;54.228;37.632;2023-11-19T05:20:52;1000.876;;;-7.31;76.10059
72975;BME280;74127;54.228;37.632;2023-11-19T05:24:52;1001.001;;;-7.25;76.07129
72975;BME280;74127;54.228;37.632;2023-11-19T05:28:52;1000.934;;;-7.22;75.99316
72975;BME280;74127;54.228;37.632;2023-11-19T05:32:52;1000.888;;;-7.35;76.16602
72975;BME280;74127;54.228;37.632;2023-11-19T05:36:22;1000.863;;;-7.39;76.3877
72975;BME280;74127;54.228;37.632;2023-11-19T05:40:22;1000.927;;;-7.41;76.54883
72975;BME280;74127;54.228;37.632;2023-11-19T05:44:22;1000.978;;;-7.43;76.77246
72975;BME280;74127;54.228;37.632;2023-11-19T05:48:22;1000.976;;;-7.39;76.54492
72975;BME280;74127;54.228;37.632;2023-11-19T05:51:07;1000.901;;;-7.37;76.58984
72975;BME280;74127;54.228;37.632;2023-11-19T05:55:06;1000.975;;;-7.25;76.53711
72975;BME280;74127;54.228;37.632;2023-11-19T05:59:06;1000.981;;;-7.19;76.49609
72975;BME280;74127;54.228;37.632;2023-11-19T06:03:06;1001.032;;;-7.17;76.30371
72975;BME280;74127;54.228;37.632;2023-11-19T06:06:28;1000.98;;;-7.17;75.9502
72975;BME280;74127;54.228;37.632;2023-11-19T06:10:27;1000.94;;;-7.12;76.07227
72975;BME280;74127;54.228;37.632;2023-11-19T06:14:27;1000.927;;;-6.87;76.06738
72975;BME280;74127;54.228;37.632;2023-11-19T06:18:27;1000.851;;;-6.67;75.6875
72975;BME280;74127;54.228;37.632;2023-11-19T06:21:32;1000.805;;;-6.7;75.57715
72975;BME280;74127;54.228;37.632;2023-11-19T06:25:32;1000.841;;;-6.58;75.42285
72975;BME280;74127;54.228;37.632;2023-11-19T06:29:32;1000.733;;;-6.41;73.88477
72975;BME280;74127;54.228;37.632;2023-11-19T06:33:32;1000.733;;;-6.41;73.88477
72975;BME280;74127;54.228;37.632;2023-11-19T06:38:00;1000.63;;;-6.5;72.74805
72975;BME280;74127;54.228;37.632;2023-11-19T06:42:00;1000.63;;;-6.5;72.74805
72975;BME280;74127;54.228;37.632;2023-11-19T06:46:00;1000.644;;;-6.42;72.77148
72975;BME280;74127;54.228;37.632;2023-11-19T06:52:40;1000.771;;;-6.27;71.33887
72975;BME280;74127;54.228;37.632;2023-11-19T06:56:39;1000.747;;;-6.33;71.1123
72975;BME280;74127;54.228;37.632;2023-11-19T07:00:39;1000.786;;;-6.59;70.63086
72975;BME280;74127;54.228;37.632;2023-11-19T07:04:39;1000.81;;;-6.41;71.00488
72975;BME280;74127;54.228;37.632;2023-11-19T07:07:09;1000.753;;;-6.42;71.07617
72975;BME280;74127;54.228;37.632;2023-11-19T07:11:09;1000.881;;;-6.29;71.62891
72975;BME280;74127;54.228;37.632;2023-11-19T07:15:09;1000.88;;;-6.23;71.16113
72975;BME280;74127;54.228;37.632;2023-11-19T07:19:09;1000.89;;;-6.04;71.44238
72975;BME280;74127;54.228;37.632;2023-11-19T07:22:13;1000.84;;;-6.03;71.40234
72975;BME280;74127;54.228;37.632;2023-11-19T07:30:12;1000.88;;;-6.04;70.84766
72975;BME280;74127;54.228;37.632;2023-11-19T07:34:12;1000.974;;;-5.99;70.54395
72975;BME280;74127;54.228;37.632;2023-11-19T07:38:33;1000.849;;;-5.95;70.54004
72975;BME280;74127;54.228;37.632;2023-11-19T07:42:33;1000.912;;;-5.67;70.50391
72975;BME280;74127;54.228;37.632;2023-11-19T07:46:33;1001.016;;;-5.51;70.67676
72975;BME280;74127;54.228;37.632;2023-11-19T07:52:55;1000.847;;;-5.51;68.6543
72975;BME280;74127;54.228;37.632;2023-11-19T07:56:54;1000.822;;;-5.55;68.33496
72975;BME280;74127;54.228;37.632;2023-11-19T08:00:55;1000.612;;;-4.95;64.89844
72975;BME280;74127;54.228;37.632;2023-11-19T08:04:54;1000.612;;;-4.95;64.89844
72975;BME280;74127;54.228;37.632;2023-11-19T08:08:01;1000.45;;;-4.48;64.72949
72975;BME280;74127;54.228;37.632;2023-11-19T08:12:01;1000.368;;;-3.96;64.06543
72975;BME280;74127;54.228;37.632;2023-11-19T08:16:01;1000.429;;;-3.75;63.66602
72975;BME280;74127;54.228;37.632;2023-11-19T08:20:01;1000.419;;;-4.06;62.5293
72975;BME280;74127;54.228;37.632;2023-11-19T08:23:06;1000.42;;;-4.2;62.71777
72975;BME280;74127;54.228;37.632;2023-11-19T08:27:05;1000.402;;;-4.73;63.98047
72975;BME280;74127;54.228;37.632;2023-11-19T08:31:05;1000.527;;;-4.81;64.33301
72975;BME280;74127;54.228;37.632;2023-11-19T08:35:05;1000.527;;;-4.81;64.33301
72975;BME280;74127;54.228;37.632;2023-11-19T08:39:38;1000.41;;;-4.71;63.91895
72975;BME280;74127;54.228;37.632;2023-11-19T08:43:38;1000.41;;;-4.71;63.91895
72975;BME280;74127;54.228;37.632;2023-11-19T08:47:38;1000.334;;;-4.83;61.7334
72975;BME280;74127;54.228;37.632;2023-11-19T08:53:17;1000.059;;;-4.59;61.6543
72975;BME280;74127;54.228;37.632;2023-11-19T08:57:16;999.96;;;-3.95;61.00195
72975;BME280;74127;54.228;37.632;2023-11-19T09:01:16;1000.047;;;-3.83;59.69727
72975;BME280;74127;54.228;37.632;2023-11-19T09:05:16;1000.047;;;-3.83;59.69727
72975;BME280;74127;54.228;37.632;2023-11-19T09:09:38;999.8578;;;-4.12;60.70605
72975;BME280;74127;54.228;37.632;2023-11-19T09:13:38;999.9902;;;-3.96;61.04395
72975;BME280;74127;54.228;37.632;2023-11-19T09:17:38;999.9982;;;-3.99;60.73438
72975;BME280;74127;54.228;37.632;2023-11-19T09:24:51;999.9325;;;-4.25;61.72559
72975;BME280;74127;54.228;37.632;2023-11-19T09:28:51;999.9662;;;-4.32;61.25293
72975;BME280;74127;54.228;37.632;2023-11-19T09:32:51;999.9099;;;-4.65;60.56641
72975;BME280;74127;54.228;37.632;2023-11-19T09:40:02;999.9005;;;-5.05;60.57129
72975;BME280;74127;54.228;37.632;2023-11-19T09:44:01;999.9081;;;-5.04;60.82422
72975;BME280;74127;54.228;37.632;2023-11-19T09:48:01;999.8787;;;-5.06;61.43945
72975;BME280;74127;54.228;37.632;2023-11-19T09:55:32;999.9063;;;-5.01;62.57617
72975;BME280;74127;54.228;37.632;2023-11-19T09:59:32;999.9063;;;-5.01;62.57617
72975;BME280;74127;54.228;37.632;2023-11-19T10:03:35;999.8428;;;-5.07;62.62012
72975;BME280;74127;54.228;37.632;2023-11-19T10:10:03;999.7711;;;-5.19;63.16699
72975;BME280;74127;54.228;37.632;2023-11-19T10:14:03;999.7711;;;-5.19;63.16699
72975;BME280;74127;54.228;37.632;2023-11-19T10:18:03;999.7978;;;-5.18;63.51367
72975;BME280;74127;54.228;37.632;2023-11-19T10:25:44;999.7416;;;-4.88;64.13477
72975;BME280;74127;54.228;37.632;2023-11-19T10:29:45;999.7416;;;-4.88;64.13477
72975;BME280;74127;54.228;37.632;2023-11-19T10:33:44;999.6557;;;-5.03;63.34766
72975;BME280;74127;54.228;37.632;2023-11-19T10:40:45;999.3954;;;-5.24;63.59766
72975;BME280;74127;54.228;37.632;2023-11-19T10:44:45;999.3954;;;-5.24;63.59766
72975;BME280;74127;54.228;37.632;2023-11-19T10:48:45;999.3503;;;-6.02;65.26367
72975;BME280;74127;54.228;37.632;2023-11-19T10:55:08;999.204;;;-6.74;67.4541
72975;BME280;74127;54.228;37.632;2023-11-19T10:59:07;999.204;;;-6.74;67.4541
72975;BME280;74127;54.228;37.632;2023-11-19T11:03:11;999.1035;;;-6.52;67.62402
72975;BME280;74127;54.228;37.632;2023-11-19T11:07:07;999.0344;;;-6.29;66.77637
72975;BME280;74127;54.228;37.632;2023-11-19T11:10:25;999.0792;;;-6.35;66.73438
72975;BME280;74127;54.228;37.632;2023-11-19T11:14:24;999.1411;;;-6.34;66.56934
72975;BME280;74127;54.228;37.632;2023-11-19T11:22:24;999.0815;;;-6.23;66.18066
72975;BME280;74127;54.228;37.632;2023-11-19T11:37:49;998.5921;;;-5.52;64.37109
72975;BME280;74127;54.228;37.632;2023-11-19T11:40:08;998.5927;;;-5.59;64.56836
72975;BME280;74127;54.228;37.632;2023-11-19T11:44:07;998.6694;;;-5.96;65.30566
72975;BME280;74127;54.228;37.632;2023-11-19T11:52:07;998.5212;;;-5.9;68.54883
72975;BME280;74127;54.228;37.632;2023-11-19T11:57:10;998.6325;;;-5.94;68.12598
72975;BME280;74127;54.228;37.632;2023-11-19T12:01:03;998.6325;;;-5.94;68.12598
72975;BME280;74127;54.228;37.632;2023-11-19T12:05:02;998.6281;;;-5.82;67.64355
72975;BME280;74127;54.228;37.632;2023-11-19T12:10:43;998.4413;;;-5.56;66.5791
72975;BME280;74127;54.228;37.632;2023-11-19T12:22:37;998.577;;;-5.63;66.12988
72975;BME280;74127;54.228;37.632;2023-11-19T12:26:04;998.5296;;;-5.61;65.79883
72975;BME280;74127;54.228;37.632;2023-11-19T12:30:04;998.6489;;;-5.49;65.76465
72975;BME280;74127;54.228;37.632;2023-11-19T12:34:06;998.5097;;;-5.58;65.21875
72975;BME280;74127;54.228;37.632;2023-11-19T12:38:03;998.5977;;;-5.67;65.51758
72975;BME280;74127;54.228;37.632;2023-11-19T12:40:45;998.4766;;;-5.74;65.30859
72975;BME280;74127;54.228;37.632;2023-11-19T12:44:56;998.6355;;;-5.87;65.1543
72975;BME280;74127;54.228;37.632;2023-11-19T12:48:44;998.6083;;;-5.92;65.95898
72975;BME280;74127;54.228;37.632;2023-11-19T12:53:05;998.7805;;;-5.66;65.43555
72975;BME280;74127;54.228;37.632;2023-11-19T12:57:46;998.7854;;;-5.67;65.0791
72975;BME280;74127;54.228;37.632;2023-11-19T13:01:55;998.7411;;;-5.65;65.53027
72975;BME280;74127;54.228;37.632;2023-11-19T13:05:46;998.8069;;;-5.64;65.27246
72975;BME280;74127;54.228;37.632;2023-11-19T13:13:08;998.7774;;;-5.71;65.53125
72975;BME280;74127;54.228;37.632;2023-11-19T13:16:58;998.7774;;;-5.71;65.53125
72975;BME280;74127;54.228;37.632;2023-11-19T13:20:58;998.7699;;;-5.94;65.95508
72975;BME280;74127;54.228;37.632;2023-11-19T13:28:05;998.8089;;;-5.77;65.91016
72975;BME280;74127;54.228;37.632;2023-11-19T13:32:05;998.7896;;;-5.66;65.86523
72975;BME280;74127;54.228;37.632;2023-11-19T13:36:05;998.6559;;;-5.56;65.97363
72975;BME280;74127;54.228;37.632;2023-11-19T13:42:20;998.5636;;;-5.7;65.65918
72975;BME280;74127;54.228;37.632;2023-11-19T13:46:20;998.5636;;;-5.7;65.65918
72975;BME280;74127;54.228;37.632;2023-11-19T13:50:20;998.6018;;;-5.84;65.89844
72975;BME280;74127;54.228;37.632;2023-11-19T13:54:20;998.5119;;;-5.91;66.25293
72975;BME280;74127;54.228;37.632;2023-11-19T13:57:26;998.4973;;;-5.94;66.34082
72975;BME280;74127;54.228;37.632;2023-11-19T14:01:26;998.5201;;;-5.96;66.4541
72975;BME280;74127;54.228;37.632;2023-11-19T14:05:26;998.4233;;;-6.12;67.10547
72975;BME280;74127;54.228;37.632;2023-11-19T14:09:26;998.2631;;;-6.2;67.33301
72975;BME280;74127;54.228;37.632;2023-11-19T14:12:17;998.3592;;;-6.2;67.3418
72975;BME280;74127;54.228;37.632;2023-11-19T14:16:16;998.2717;;;-6.24;67.22266
72975;BME280;74127;54.228;37.632;2023-11-19T14:20:16;998.2986;;;-6.29;67.71289
72975;BME280;74127;54.228;37.632;2023-11-19T14:24:16;998.2095;;;-6.31;68.04395
72975;BME280;74127;54.228;37.632;2023-11-19T14:28:45;998.1485;;;-6.27;68.28125
72975;BME280;74127;54.228;37.632;2023-11-19T14:32:45;998.0999;;;-6.17;68.37793
72975;BME280;74127;54.228;37.632;2023-11-19T14:36:45;998.0999;;;-6.17;68.37793
72975;BME280;74127;54.228;37.632;2023-11-19T14:42:56;998.0992;;;-6.32;68.79297
72975;BME280;74127;54.228;37.632;2023-11-19T14:46:56;998.0529;;;-6.26;68.78125
72975;BME280;74127;54.228;37.632;2023-11-19T14:50:56;997.8505;;;-6.22;68.70508
72975;BME280;74127;54.228;37.632;2023-11-19T14:54:56;997.9277;;;-6.09;68.66309
72975;BME280;74127;54.228;37.632;2023-11-19T14:58:23;997.7267;;;-6.18;68.94043
72975;BME280;74127;54.228;37.632;2023-11-19T15:02:22;997.7267;;;-6.18;68.94043
72975;BME280;74127;54.228;37.632;2023-11-19T15:06:22;997.7635;;;-6.16;68.91211
72975;BME280;74127;54.228;37.632;2023-11-19T15:10:22;997.7081;;;-6.17;69.30664
72975;BME280;74127;54.228;37.632;2023-11-19T15:13:11;997.6027;;;-6.12;69.32422
72975;BME280;74127;54.228;37.632;2023-11-19T15:18:13;997.6699;;;-6.02;69.52734
72975;BME280;74127;54.228;37.632;2023-11-19T15:22:13;997.6699;;;-6.02;69.52734
72975;BME280;74127;54.228;37.632;2023-11-19T15:26:13;997.6138;;;-6.02;69.51855
72975;BME280;74127;54.228;37.632;2023-11-19T15:30:13;997.5993;;;-5.97;69.56836
72975;BME280;74127;54.228;37.632;2023-11-19T15:38:13;997.4579;;;-5.82;69.40527
72975;BME280;74127;54.228;37.632;2023-11-19T15:42:13;997.4579;;;-5.82;69.40527
72975;BME280;74127;54.228;37.632;2023-11-19T15:46:13;997.436;;;-6;70.06348
72975;BME280;74127;54.228;37.632;2023-11-19T15:50:13;997.3486;;;-6.07;70.36328
72975;BME280;74127;54.228;37.632;2023-11-19T15:54:13;997.3552;;;-6.14;70.63379
72975;BME280;74127;54.228;37.632;2023-11-19T15:58:13;997.3879;;;-6.08;70.88281
72975;BME280;74127;54.228;37.632;2023-11-19T16:04:48;997.3347;;;-6.09;70.8916
72975;BME280;74127;54.228;37.632;2023-11-19T16:08:48;997.3242;;;-5.97;70.67285
72975;BME280;74127;54.228;37.632;2023-11-19T16:12:48;997.2675;;;-6.12;70.96973
72975;BME280;74127;54.228;37.632;2023-11-19T16:16:48;997.1016;;;-6.15;71.19238
72975;BME280;74127;54.228;37.632;2023-11-19T16:19:25;997.1071;;;-6.16;71.13965
72975;BME280;74127;54.228;37.632;2023-11-19T16:23:25;997.116;;;-6.11;71.29297
72975;BME280;74127;54.228;37.632;2023-11-19T16:27:25;997.0814;;;-6.11;71.46973
72975;BME280;74127;54.228;37.632;2023-11-19T16:31:25;997.0634;;;-6.05;71.52246
72975;BME280;74127;54.228;37.632;2023-11-19T16:35:12;996.8444;;;-6.07;71.63379
72975;BME280;74127;54.228;37.632;2023-11-19T16:39:12;996.8444;;;-6.07;71.63379
72975;BME280;74127;54.228;37.632;2023-11-19T16:43:12;996.8008;;;-6.01;71.55176
72975;BME280;74127;54.228;37.632;2023-11-19T16:49:32;996.6979;;;-6.23;71.86719
72975;BME280;74127;54.228;37.632;2023-11-19T16:53:32;996.6605;;;-6.19;72.01074
72975;BME280;74127;54.228;37.632;2023-11-19T16:57:32;996.6591;;;-6.27;72.2041
72975;BME280;74127;54.228;37.632;2023-11-19T17:01:32;996.508;;;-6.16;71.82617
72975;BME280;74127;54.228;37.632;2023-11-19T17:05:55;996.4631;;;-6.15;71.77734
72975;BME280;74127;54.228;37.632;2023-11-19T17:09:55;996.6029;;;-6.3;72.29297
72975;BME280;74127;54.228;37.632;2023-11-19T17:13:55;996.5944;;;-6.31;72.43555
72975;BME280;74127;54.228;37.632;2023-11-19T17:20:58;996.5;;;-6.19;72.25
72975;BME280;74127;54.228;37.632;2023-11-19T17:24:58;996.5;;;-6.19;72.25
72975;BME280;74127;54.228;37.632;2023-11-19T17:28:58;996.6067;;;-6.18;72.32227
72975;BME280;74127;54.228;37.632;2023-11-19T17:35:14;996.4852;;;-6.14;72.27832
72975;BME280;74127;54.228;37.632;2023-11-19T17:39:14;996.539;;;-6.07;72.41406
72975;BME280;74127;54.228;37.632;2023-11-19T17:43:14;996.6245;;;-6.03;72.47461
72975;BME280;74127;54.228;37.632;2023-11-19T17:47:14;996.5563;;;-5.95;72.49805
72975;BME280;74127;54.228;37.632;2023-11-19T17:50:38;996.5734;;;-5.99;72.5752
72975;BME280;74127;54.228;37.632;2023-11-19T17:54:38;996.6273;;;-5.92;72.51465
72975;BME280;74127;54.228;37.632;2023-11-19T17:58:38;996.5809;;;-6;72.82324
72975;BME280;74127;54.228;37.632;2023-11-19T18:02:42;996.614;;;-5.86;72.59766
72975;BME280;74127;54.228;37.632;2023-11-19T18:10:38;996.5331;;;-5.89;72.85254
72975;BME280;74127;54.228;37.632;2023-11-19T18:14:39;996.5245;;;-5.83;72.93555
72975;BME280;74127;54.228;37.632;2023-11-19T18:20:48;996.5095;;;-5.89;73.15332
72975;BME280;74127;54.228;37.632;2023-11-19T18:24:47;996.5349;;;-5.83;73.2373
72975;BME280;74127;54.228;37.632;2023-11-19T18:28:47;996.4589;;;-5.72;73.21484
72975;BME280;74127;54.228;37.632;2023-11-19T18:32:47;996.4263;;;-5.74;73.37695
72975;BME280;74127;54.228;37.632;2023-11-19T18:36:47;996.5381;;;-5.74;73.57617
72975;BME280;74127;54.228;37.632;2023-11-19T18:40:47;996.5381;;;-5.74;73.57617
72975;BME280;74127;54.228;37.632;2023-11-19T18:44:47;996.5089;;;-5.58;73.35449
72975;BME280;74127;54.228;37.632;2023-11-19T18:48:47;996.5309;;;-5.54;73.32031
72975;BME280;74127;54.228;37.632;2023-11-19T18:52:47;996.5114;;;-5.54;73.52734
72975;BME280;74127;54.228;37.632;2023-11-19T19:00:47;996.5193;;;-5.64;73.85449
72975;BME280;74127;54.228;37.632;2023-11-19T19:04:47;996.5316;;;-5.59;73.92578
72975;BME280;74127;54.228;37.632;2023-11-19T19:08:47;996.5295;;;-5.58;74
72975;BME280;74127;54.228;37.632;2023-11-19T19:12:47;996.3998;;;-5.64;74.28027
72975;BME280;74127;54.228;37.632;2023-11-19T19:16:47;996.3647;;;-5.63;74.4502
72975;BME280;74127;54.228;37.632;2023-11-19T19:20:47;996.3647;;;-5.63;74.4502
72975;BME280;74127;54.228;37.632;2023-11-19T19:24:47;996.3577;;;-5.61;74.66113
72975;BME280;74127;54.228;37.632;2023-11-19T19:28:47;996.2635;;;-5.48;74.40332
72975;BME280;74127;54.228;37.632;2023-11-19T19:32:47;996.1114;;;-5.33;74.11719
72975;BME280;74127;54.228;37.632;2023-11-19T19:36:47;996.0864;;;-5.25;73.82813
72975;BME280;74127;54.228;37.632;2023-11-19T19:40:47;996.0864;;;-5.25;73.82813
72975;BME280;74127;54.228;37.632;2023-11-19T19:44:47;996.0427;;;-5.35;73.97852
72975;BME280;74127;54.228;37.632;2023-11-19T19:48:47;995.9819;;;-5.49;74.58887
72975;BME280;74127;54.228;37.632;2023-11-19T19:52:47;995.9316;;;-5.6;74.93359
72975;BME280;74127;54.228;37.632;2023-11-19T19:56:47;995.928;;;-5.61;75.12988
72975;BME280;74127;54.228;37.632;2023-11-19T20:00:47;995.928;;;-5.61;75.12988
72975;BME280;74127;54.228;37.632;2023-11-19T20:04:47;995.9331;;;-5.58;75.17676
72975;BME280;74127;54.228;37.632;2023-11-19T20:08:47;995.9442;;;-5.52;75.10449
72975;BME280;74127;54.228;37.632;2023-11-19T20:12:47;995.9447;;;-5.42;75.06934
72975;BME280;74127;54.228;37.632;2023-11-19T20:16:47;995.8504;;;-5.29;74.51953
72975;BME280;74127;54.228;37.632;2023-11-19T20:20:47;995.8504;;;-5.29;74.51953
72975;BME280;74127;54.228;37.632;2023-11-19T20:24:47;995.7339;;;-5.36;75.02734
72975;BME280;74127;54.228;37.632;2023-11-19T20:28:47;995.7314;;;-5.36;75.2998
72975;BME280;74127;54.228;37.632;2023-11-19T20:32:47;995.8117;;;-5.37;75.28613
72975;BME280;74127;54.228;37.632;2023-11-19T20:36:47;995.5366;;;-5.42;75.40234
72975;BME280;74127;54.228;37.632;2023-11-19T20:40:47;995.5366;;;-5.42;75.40234
72975;BME280;74127;54.228;37.632;2023-11-19T20:48:44;995.5004;;;-5.37;75.56738
72975;BME280;74127;54.228;37.632;2023-11-19T20:52:43;995.5938;;;-5.25;75.36035
72975;BME280;74127;54.228;37.632;2023-11-19T20:56:43;995.3504;;;-5.16;75.02246
72975;BME280;74127;54.228;37.632;2023-11-19T21:00:43;995.4832;;;-5.15;75.04492
72975;BME280;74127;54.228;37.632;2023-11-19T21:04:44;995.3772;;;-5.15;75.0332
72975;BME280;74127;54.228;37.632;2023-11-19T21:08:44;995.3772;;;-5.15;75.0332
72975;BME280;74127;54.228;37.632;2023-11-19T21:12:44;995.3524;;;-5.2;75.10938
72975;BME280;74127;54.228;37.632;2023-11-19T21:16:44;995.1926;;;-5.19;75.34082
72975;BME280;74127;54.228;37.632;2023-11-19T21:20:44;995.2319;;;-5.27;75.67969
72975;BME280;74127;54.228;37.632;2023-11-19T21:24:44;995.2037;;;-5.27;75.80273
72975;BME280;74127;54.228;37.632;2023-11-19T21:28:44;995.2037;;;-5.27;75.80273
72975;BME280;74127;54.228;37.632;2023-11-19T21:32:44;995.0383;;;-5.25;76.00586
72975;BME280;74127;54.228;37.632;2023-11-19T21:36:44;994.9728;;;-5.18;76.01758
72975;BME280;74127;54.228;37.632;2023-11-19T21:40:44;994.9203;;;-5.13;75.88184
72975;BME280;74127;54.228;37.632;2023-11-19T21:44:44;995.0186;;;-5.17;75.89648
72975;BME280;74127;54.228;37.632;2023-11-19T21:48:44;995.0186;;;-5.17;75.89648
72975;BME280;74127;54.228;37.632;2023-11-19T21:52:44;994.8658;;;-5.32;76.61914
72975;BME280;74127;54.228;37.632;2023-11-19T21:56:44;994.8209;;;-5.32;76.78516
72975;BME280;74127;54.228;37.632;2023-11-19T22:00:44;994.8323;;;-5.44;77.26367
72975;BME280;74127;54.228;37.632;2023-11-19T22:04:44;994.788;;;-5.41;77.45801